Time;durP1;ratioP1;P1;durP2;ratioP2;P2;SDS_P1;SDS_P2;PMS_P1;PMS_P2;Temp;Humidity;BMP_temperature;BMP_pressure;BME280_temperature;BME280_humidity;BME280_pressure;Samples;Min_cycle;Max_cycle;Signal;HPM_P1;HPM_P2
2023/07/11 00:00:48;;;;;;;16.77;15.30;;;14.40;99.90;;;;;;4985352;28;20496;-71
2023/07/11 00:03:16;;;;;;;18.33;16.80;;;14.30;99.90;;;;;;4985762;28;20520;-71
2023/07/11 00:05:43;;;;;;;19.27;17.52;;;14.10;99.90;;;;;;4990861;28;20042;-72
2023/07/11 00:08:09;;;;;;;19.08;17.45;;;14.10;99.90;;;;;;4983854;28;20185;-71
2023/07/11 00:10:36;;;;;;;18.33;16.67;;;14.00;99.90;;;;;;4994210;28;20057;-72
2023/07/11 00:13:03;;;;;;;18.55;17.00;;;14.10;99.90;;;;;;4989552;28;20665;-72
2023/07/11 00:15:30;;;;;;;17.30;15.95;;;14.10;99.90;;;;;;4992920;28;20113;-71
2023/07/11 00:17:57;;;;;;;16.92;15.65;;;14.10;99.90;;;;;;4996152;28;20054;-71
2023/07/11 00:20:23;;;;;;;17.48;16.15;;;14.10;99.90;;;;;;4991000;28;20042;-71
2023/07/11 00:22:50;;;;;;;16.35;15.20;;;14.10;99.90;;;;;;4987972;28;20060;-71
2023/07/11 00:25:17;;;;;;;16.13;15.00;;;14.10;99.90;;;;;;4992323;28;20080;-73
2023/07/11 00:27:43;;;;;;;16.48;15.10;;;14.00;99.90;;;;;;4993070;28;20074;-72
2023/07/11 00:30:11;;;;;;;17.67;16.05;;;14.00;99.90;;;;;;4988180;28;20046;-72
2023/07/11 00:32:37;;;;;;;16.95;15.68;;;14.10;99.90;;;;;;4994446;28;20942;-72
2023/07/11 00:35:04;;;;;;;16.80;15.70;;;14.00;99.90;;;;;;4989329;28;20104;-70
2023/07/11 00:37:31;;;;;;;16.75;15.52;;;14.00;99.90;;;;;;4991611;28;20047;-72
2023/07/11 00:39:59;;;;;;;16.25;14.73;;;14.00;99.90;;;;;;4993287;28;20528;-71
2023/07/11 00:42:25;;;;;;;16.65;15.23;;;13.70;99.90;;;;;;4994510;28;20676;-72
2023/07/11 00:44:57;;;;;;;16.70;15.23;;;13.80;99.90;;;;;;4991952;28;20115;-71
2023/07/11 00:47:26;;;;;;;15.98;14.40;;;13.90;99.90;;;;;;4989957;28;20519;-72
2023/07/11 00:49:59;;;;;;;14.35;13.15;;;13.80;99.90;;;;;;4990977;28;20042;-71
2023/07/11 00:52:28;;;;;;;14.75;13.55;;;13.70;99.90;;;;;;4992083;28;20046;-71
2023/07/11 00:54:58;;;;;;;14.88;13.68;;;13.80;99.90;;;;;;4992767;28;20077;-72
2023/07/11 00:57:28;;;;;;;15.88;14.45;;;13.90;99.90;;;;;;4996328;28;20038;-72
2023/07/11 00:59:55;;;;;;;15.75;14.55;;;13.90;99.90;;;;;;4995534;28;20057;-72
2023/07/11 01:02:27;;;;;;;16.77;15.30;;;13.90;99.90;;;;;;4994040;28;20093;-72
2023/07/11 01:04:55;;;;;;;15.85;14.30;;;13.80;99.90;;;;;;4993871;28;20073;-70
2023/07/11 01:07:29;;;;;;;16.17;14.60;;;13.70;99.90;;;;;;4991462;28;20290;-72
2023/07/11 01:09:55;;;;;;;16.30;15.13;;;13.70;99.90;;;;;;4994217;28;20673;-72
2023/07/11 01:12:23;;;;;;;16.65;15.23;;;13.60;99.90;;;;;;4992509;28;20039;-72
2023/07/11 01:14:51;;;;;;;17.27;15.77;;;13.50;99.90;;;;;;4993231;28;20119;-72
2023/07/11 01:17:22;;;;;;;16.98;15.50;;;13.50;99.90;;;;;;4993551;28;20512;-71
2023/07/11 01:19:49;;;;;;;16.85;15.65;;;13.50;99.90;;;;;;4992371;28;20066;-70
2023/07/11 01:22:16;;;;;;;16.90;15.48;;;13.50;99.90;;;;;;4991980;28;20050;-71
2023/07/11 01:24:44;;;;;;;17.10;15.80;;;13.60;99.90;;;;;;4994142;28;20521;-72
2023/07/11 01:27:11;;;;;;;18.50;16.90;;;13.60;99.90;;;;;;4989910;28;20092;-71
2023/07/11 01:29:41;;;;;;;17.50;16.17;;;13.60;99.90;;;;;;4992902;28;20042;-71
2023/07/11 01:32:09;;;;;;;17.48;15.88;;;13.40;99.90;;;;;;4987455;28;20039;-71
2023/07/11 01:34:38;;;;;;;16.33;15.05;;;13.30;99.90;;;;;;4985110;28;20046;-72
2023/07/11 01:37:06;;;;;;;15.57;14.38;;;13.40;99.90;;;;;;4987008;28;20059;-71
2023/07/11 01:39:33;;;;;;;16.80;15.40;;;13.40;99.90;;;;;;4992182;28;20053;-71
2023/07/11 01:42:00;;;;;;;16.20;14.80;;;13.50;99.90;;;;;;4989965;28;20102;-72
2023/07/11 01:44:26;;;;;;;15.73;14.32;;;13.50;99.90;;;;;;4993405;28;20515;-70
2023/07/11 01:46:53;;;;;;;17.05;15.40;;;13.60;99.90;;;;;;4992091;28;20069;-71
2023/07/11 01:49:20;;;;;;;15.73;14.32;;;13.60;99.90;;;;;;4995553;28;20099;-71
2023/07/11 01:51:47;;;;;;;16.58;15.05;;;13.60;99.90;;;;;;4994058;28;20035;-71
2023/07/11 01:54:14;;;;;;;15.02;13.68;;;13.60;99.90;;;;;;4992033;28;20112;-72
2023/07/11 01:56:41;;;;;;;14.93;13.82;;;13.50;99.90;;;;;;4992580;28;20073;-71
2023/07/11 01:59:08;;;;;;;15.60;14.23;;;13.40;99.90;;;;;;4991589;28;20045;-71
2023/07/11 02:01:35;;;;;;;16.17;14.68;;;13.40;99.90;;;;;;4992562;28;20037;-73
2023/07/11 02:04:02;;;;;;;16.75;15.45;;;13.50;99.90;;;;;;4994084;28;20046;-71
2023/07/11 02:06:28;;;;;;;15.30;14.05;;;13.50;99.90;;;;;;4995047;28;20053;-70
2023/07/11 02:08:55;;;;;;;16.52;14.63;;;13.50;99.90;;;;;;4990245;28;20500;-71
2023/07/11 02:11:22;;;;;;;15.05;13.60;;;13.50;99.90;;;;;;4992900;28;20069;-71
2023/07/11 02:13:49;;;;;;;17.92;14.63;;;13.50;99.90;;;;;;4973381;28;20103;-71
2023/07/11 02:16:16;;;;;;;16.20;14.55;;;13.40;99.90;;;;;;4991522;28;20038;-73
2023/07/11 02:18:42;;;;;;;16.48;14.82;;;13.30;99.90;;;;;;4991500;28;20050;-72
2023/07/11 02:21:09;;;;;;;16.85;15.10;;;13.30;99.90;;;;;;4989423;28;20061;-72
2023/07/11 02:23:36;;;;;;;16.38;14.80;;;13.20;99.90;;;;;;4982485;28;20061;-73
2023/07/11 02:26:03;;;;;;;15.57;14.40;;;13.10;99.90;;;;;;4992373;28;20522;-72
2023/07/11 02:28:30;;;;;;;15.32;14.20;;;13.00;99.90;;;;;;4996545;28;20060;-73
2023/07/11 02:30:57;;;;;;;15.75;14.23;;;13.00;99.90;;;;;;4992977;28;20099;-71
2023/07/11 02:33:23;;;;;;;16.05;14.75;;;12.90;99.90;;;;;;4985234;28;20136;-71
2023/07/11 02:35:50;;;;;;;16.27;14.93;;;13.00;99.90;;;;;;4994906;28;20050;-71
2023/07/11 02:38:17;;;;;;;16.05;14.45;;;13.10;99.90;;;;;;4992020;28;20622;-71
2023/07/11 02:40:44;;;;;;;15.65;14.20;;;13.20;99.90;;;;;;4990524;28;20054;-70
2023/07/11 02:43:10;;;;;;;15.43;14.25;;;13.10;99.90;;;;;;4990207;28;20419;-71
2023/07/11 02:45:37;;;;;;;14.90;13.85;;;13.10;99.90;;;;;;4988900;28;20066;-71
2023/07/11 02:48:04;;;;;;;16.80;14.98;;;13.20;99.90;;;;;;4986431;28;20050;-71
2023/07/11 02:50:31;;;;;;;15.88;14.48;;;13.40;99.90;;;;;;4996503;28;20520;-71
2023/07/11 02:52:58;;;;;;;17.23;15.43;;;13.40;99.90;;;;;;4990810;28;20076;-70
2023/07/11 02:55:24;;;;;;;16.10;14.63;;;13.40;99.90;;;;;;4994022;28;20045;-70
2023/07/11 02:57:51;;;;;;;15.77;13.60;;;13.50;99.90;;;;;;4994236;28;20046;-71
2023/07/11 03:00:18;;;;;;;14.63;13.40;;;13.60;99.90;;;;;;4986529;28;20050;-71
2023/07/11 03:02:45;;;;;;;14.95;13.40;;;13.60;99.90;;;;;;4986813;28;20749;-71
2023/07/11 03:05:12;;;;;;;14.25;12.73;;;13.50;99.90;;;;;;4990911;28;20072;-71
2023/07/11 03:07:40;;;;;;;15.13;12.43;;;13.60;99.90;;;;;;4990318;28;20041;-71
2023/07/11 03:10:07;;;;;;;12.65;11.68;;;13.40;99.90;;;;;;4980388;28;20068;-70
2023/07/11 03:12:34;;;;;;;16.67;14.13;;;13.30;99.90;;;;;;4993217;28;20484;-71
2023/07/11 03:15:02;;;;;;;15.38;13.98;;;13.40;99.90;;;;;;4998385;28;20050;-71
2023/07/11 03:17:30;;;;;;;14.32;12.93;;;13.40;99.90;;;;;;4990714;28;20053;-70
2023/07/11 03:19:57;;;;;;;16.25;14.75;;;13.30;99.90;;;;;;4992820;28;20053;-71
2023/07/11 03:22:26;;;;;;;15.57;14.00;;;13.40;99.90;;;;;;4986686;28;20617;-70
2023/07/11 03:24:52;;;;;;;15.40;13.95;;;13.60;99.90;;;;;;4992460;28;20073;-71
2023/07/11 03:27:19;;;;;;;14.50;13.10;;;13.60;99.90;;;;;;5006646;28;20460;-70
2023/07/11 03:29:46;;;;;;;17.92;12.90;;;13.40;99.90;;;;;;4988986;28;20033;-73
2023/07/11 03:32:12;;;;;;;15.38;13.82;;;13.30;99.90;;;;;;4990243;28;20045;-71
2023/07/11 03:34:39;;;;;;;14.45;12.90;;;13.30;99.90;;;;;;4989269;28;20096;-72
2023/07/11 03:37:19;;;;;;;14.50;13.02;;;13.50;99.90;;;;;;4990336;28;20052;-71
2023/07/11 03:39:46;;;;;;;14.25;12.80;;;13.70;99.90;;;;;;4995814;28;20034;-72
2023/07/11 03:42:13;;;;;;;13.52;12.13;;;13.70;99.90;;;;;;4989424;28;20042;-70
2023/07/11 03:44:42;;;;;;;14.80;13.38;;;13.60;99.90;;;;;;4997628;28;20064;-72
2023/07/11 03:47:09;;;;;;;16.63;13.15;;;13.60;99.90;;;;;;4989691;28;20037;-70
2023/07/11 03:49:36;;;;;;;15.35;13.15;;;13.70;99.90;;;;;;4994671;28;20056;-70
2023/07/11 03:52:03;;;;;;;14.40;13.10;;;13.60;99.90;;;;;;4993785;28;20137;-71
2023/07/11 03:54:30;;;;;;;15.75;14.25;;;13.50;99.90;;;;;;5009375;28;20049;-71
2023/07/11 03:56:57;;;;;;;15.18;13.82;;;13.50;99.90;;;;;;4990527;28;20121;-70
2023/07/11 03:59:24;;;;;;;14.73;13.45;;;13.60;99.90;;;;;;4990396;28;20041;-72
2023/07/11 04:01:50;;;;;;;14.63;13.32;;;13.70;99.90;;;;;;4991453;28;20125;-70
2023/07/11 04:04:17;;;;;;;16.05;14.50;;;13.60;99.90;;;;;;4992132;28;20096;-71
2023/07/11 04:06:44;;;;;;;17.02;14.25;;;13.70;99.90;;;;;;4993139;28;20135;-72
2023/07/11 04:09:11;;;;;;;15.10;13.80;;;13.70;99.90;;;;;;4991922;28;20282;-72
2023/07/11 04:11:38;;;;;;;16.52;14.98;;;13.60;99.90;;;;;;4992839;28;20041;-72
2023/07/11 04:14:06;;;;;;;16.10;14.77;;;13.70;99.90;;;;;;4986845;28;20081;-70
2023/07/11 04:16:32;;;;;;;16.20;14.88;;;13.90;99.90;;;;;;4993559;28;20125;-70
2023/07/11 04:18:59;;;;;;;16.27;14.70;;;14.00;99.90;;;;;;4990785;28;20109;-70
2023/07/11 04:21:26;;;;;;;15.27;13.95;;;14.10;99.90;;;;;;4992044;28;20074;-70
2023/07/11 04:23:53;;;;;;;15.25;13.60;;;14.30;99.90;;;;;;4998077;28;20038;-72
2023/07/11 04:26:20;;;;;;;14.88;13.32;;;14.40;99.90;;;;;;4995704;28;20054;-72
2023/07/11 04:28:46;;;;;;;16.73;14.90;;;14.40;99.90;;;;;;5002515;28;20042;-70
2023/07/11 04:31:13;;;;;;;15.13;13.68;;;14.40;99.90;;;;;;5002517;28;20072;-71
2023/07/11 04:33:40;;;;;;;15.20;13.65;;;14.40;99.90;;;;;;4995534;28;20077;-71
2023/07/11 04:36:12;;;;;;;15.60;14.30;;;14.40;99.90;;;;;;5014138;28;20491;-71
2023/07/11 04:38:39;;;;;;;14.73;13.52;;;14.50;99.90;;;;;;5015888;28;20038;-72
2023/07/11 04:41:07;;;;;;;15.93;14.75;;;14.60;99.90;;;;;;5004380;28;20073;-71
2023/07/11 04:43:34;;;;;;;17.88;16.58;;;14.90;99.90;;;;;;4997338;28;20121;-73
2023/07/11 04:46:01;;;;;;;19.45;17.65;;;15.30;99.90;;;;;;4992206;28;20046;-73
2023/07/11 04:48:28;;;;;;;18.58;17.17;;;15.50;99.90;;;;;;4994271;28;20050;-72
2023/07/11 04:51:03;;;;;;;20.02;18.63;;;15.80;99.90;;;;;;4989363;28;20050;-72
2023/07/11 04:53:31;;;;;;;21.95;20.30;;;16.00;99.90;;;;;;4988764;28;20053;-72
2023/07/11 04:56:07;;;;;;;21.45;20.10;;;16.20;99.90;;;;;;4989668;28;20058;-72
2023/07/11 04:58:35;;;;;;;22.73;21.13;;;16.50;99.90;;;;;;4997376;28;22005;-71
2023/07/11 05:01:04;;;;;;;22.77;20.98;;;16.80;99.90;;;;;;4995596;28;20159;-73
2023/07/11 05:03:31;;;;;;;23.48;21.55;;;17.10;99.90;;;;;;4990442;28;20155;-71
2023/07/11 05:05:58;;;;;;;23.30;21.48;;;17.40;99.90;;;;;;4989629;28;20093;-73
2023/07/11 05:08:25;;;;;;;23.52;21.92;;;17.60;99.90;;;;;;4990252;28;20138;-73
2023/07/11 05:10:58;;;;;;;23.75;22.05;;;18.00;99.90;;;;;;4985810;28;20519;-72
2023/07/11 05:13:25;;;;;;;24.48;22.70;;;18.30;99.90;;;;;;4994528;28;20054;-72
2023/07/11 05:16:02;;;;;;;23.60;22.05;;;18.50;99.90;;;;;;4994717;28;20076;-72
2023/07/11 05:18:29;;;;;;;24.63;22.73;;;18.90;99.90;;;;;;4987339;28;20141;-72
2023/07/11 05:20:56;;;;;;;24.20;22.60;;;19.20;99.90;;;;;;4995042;28;20413;-72
2023/07/11 05:23:26;;;;;;;23.63;22.13;;;19.50;99.90;;;;;;4991063;28;20031;-69
2023/07/11 05:25:56;;;;;;;24.50;22.55;;;19.70;99.90;;;;;;4992479;28;20137;-71
2023/07/11 05:28:27;;;;;;;24.95;22.90;;;19.70;99.90;;;;;;4990314;28;20057;-70
2023/07/11 05:30:55;;;;;;;24.48;22.73;;;20.10;99.90;;;;;;4994160;28;20053;-72
2023/07/11 05:33:23;;;;;;;24.30;22.40;;;20.40;99.90;;;;;;4987912;28;20064;-72
2023/07/11 05:36:32;;;;;;;23.70;22.02;;;20.60;99.90;;;;;;4997752;28;20048;-69
2023/07/11 05:39:14;;;;;;;24.67;22.90;;;20.70;99.90;;;;;;4993978;28;20153;-70
2023/07/11 05:41:44;;;;;;;25.45;23.48;;;20.80;99.90;;;;;;4996633;28;20050;-71
2023/07/11 05:44:13;;;;;;;24.38;22.58;;;20.80;99.90;;;;;;4993655;28;20146;-70
2023/07/11 05:46:40;;;;;;;23.83;22.33;;;20.80;99.90;;;;;;4991265;28;20077;-70
2023/07/11 05:49:10;;;;;;;25.05;23.30;;;21.20;99.90;;;;;;4996613;28;20794;-70
2023/07/11 05:51:37;;;;;;;25.33;23.33;;;21.50;99.90;;;;;;5007426;28;21489;-70
2023/07/11 05:54:04;;;;;;;24.58;22.98;;;21.60;99.90;;;;;;4994613;28;20084;-70
2023/07/11 05:56:31;;;;;;;24.25;22.65;;;21.70;99.90;;;;;;4992029;28;20046;-70
2023/07/11 05:58:59;;;;;;;24.75;23.05;;;21.90;99.90;;;;;;4997878;28;20500;-70
2023/07/11 06:01:27;;;;;;;24.83;23.05;;;22.10;99.90;;;;;;4987051;28;20046;-70
2023/07/11 06:04:06;;;;;;;24.80;22.98;;;22.00;99.90;;;;;;4992204;28;20046;-70
2023/07/11 06:06:41;;;;;;;25.63;23.52;;;22.10;99.90;;;;;;4991663;28;21438;-70
2023/07/11 06:09:09;;;;;;;25.55;23.83;;;22.10;99.90;;;;;;4996057;28;20044;-73
2023/07/11 06:11:36;;;;;;;26.38;24.50;;;22.20;99.90;;;;;;4993311;28;20038;-72
2023/07/11 06:14:03;;;;;;;26.65;24.75;;;22.20;99.90;;;;;;4994946;28;20100;-72
2023/07/11 06:16:30;;;;;;;25.95;24.15;;;22.00;99.90;;;;;;4988000;28;20472;-71
2023/07/11 06:18:58;;;;;;;26.20;24.38;;;22.00;99.90;;;;;;4989928;28;20510;-70
2023/07/11 06:21:25;;;;;;;27.00;24.88;;;22.40;99.90;;;;;;4990243;28;20085;-71
2023/07/11 06:23:52;;;;;;;25.92;24.13;;;22.60;99.90;;;;;;4998789;28;20042;-72
2023/07/11 06:26:19;;;;;;;26.70;24.85;;;22.90;99.90;;;;;;4992878;28;20112;-72
2023/07/11 06:28:46;;;;;;;27.20;25.35;;;22.70;99.90;;;;;;4994049;28;20054;-72
2023/07/11 06:31:13;;;;;;;26.83;24.95;;;22.70;99.90;;;;;;4987504;28;20061;-71
2023/07/11 06:33:41;;;;;;;26.10;24.33;;;22.30;99.90;;;;;;4995058;28;20046;-71
2023/07/11 06:36:09;;;;;;;26.08;24.38;;;22.20;99.90;;;;;;4989122;28;20132;-72
2023/07/11 06:38:36;;;;;;;27.10;25.00;;;22.50;99.90;;;;;;4987644;28;20512;-73
2023/07/11 06:41:03;;;;;;;27.45;25.38;;;22.60;99.90;;;;;;4995259;28;20210;-72
2023/07/11 06:43:31;;;;;;;27.00;24.70;;;22.70;99.90;;;;;;4986802;28;20048;-71
2023/07/11 06:45:59;;;;;;;29.15;26.38;;;23.00;99.90;;;;;;4992046;28;20635;-71
2023/07/11 06:48:29;;;;;;;27.95;25.92;;;22.90;99.90;;;;;;4990666;28;20523;-72
2023/07/11 06:51:01;;;;;;;28.35;26.27;;;23.10;99.90;;;;;;4993329;28;20451;-70
2023/07/11 06:53:31;;;;;;;27.50;25.70;;;23.10;99.90;;;;;;4991550;28;20054;-71
2023/07/11 06:55:59;;;;;;;27.90;26.00;;;22.90;99.90;;;;;;4995605;28;20112;-72
2023/07/11 06:58:26;;;;;;;28.08;26.17;;;23.10;99.90;;;;;;4999206;28;20053;-72
2023/07/11 07:01:01;;;;;;;28.15;26.23;;;23.30;99.90;;;;;;4995734;28;20042;-72
2023/07/11 07:03:29;;;;;;;28.17;26.27;;;23.40;99.90;;;;;;4996961;28;20076;-73
2023/07/11 07:06:09;;;;;;;28.80;26.40;;;23.60;99.90;;;;;;4997943;28;20577;-71
2023/07/11 07:08:36;;;;;;;28.40;26.50;;;23.40;99.90;;;;;;4990187;28;20459;-71
2023/07/11 07:11:04;;;;;;;27.85;25.73;;;23.60;99.90;;;;;;4996262;28;20420;-72
2023/07/11 07:13:32;;;;;;;27.95;26.05;;;23.50;99.90;;;;;;4979383;28;20133;-72
2023/07/11 07:16:00;;;;;;;28.00;26.10;;;23.80;99.90;;;;;;4995177;28;20324;-72
2023/07/11 07:18:34;;;;;;;27.45;25.75;;;24.00;99.90;;;;;;4992638;28;20050;-73
2023/07/11 07:21:03;;;;;;;27.15;25.40;;;24.10;99.90;;;;;;4991218;28;20112;-73
2023/07/11 07:23:31;;;;;;;28.48;26.58;;;24.40;99.90;;;;;;4992295;28;20100;-72
2023/07/11 07:26:00;;;;;;;30.20;27.67;;;24.40;99.90;;;;;;5001441;28;20117;-73
2023/07/11 07:28:28;;;;;;;27.90;26.20;;;24.40;99.90;;;;;;4988488;28;20145;-72
2023/07/11 07:30:56;;;;;;;28.40;26.52;;;24.60;99.90;;;;;;4994368;28;20520;-72
2023/07/11 07:33:25;;;;;;;28.02;26.02;;;24.90;99.90;;;;;;4988792;28;20030;-72
2023/07/11 07:36:06;;;;;;;29.48;27.42;;;25.20;99.90;;;;;;4993756;28;20096;-72
2023/07/11 07:38:33;;;;;;;28.63;26.67;;;25.50;99.90;;;;;;4991368;28;20488;-73
2023/07/11 07:41:03;;;;;;;29.25;27.05;;;25.50;99.90;;;;;;4993052;28;20046;-73
2023/07/11 07:43:31;;;;;;;29.27;27.38;;;25.60;99.90;;;;;;4996876;28;20050;-73
2023/07/11 07:46:00;;;;;;;29.40;27.27;;;25.70;99.90;;;;;;4997255;28;20121;-72
2023/07/11 07:48:28;;;;;;;29.77;27.77;;;25.70;99.90;;;;;;5007010;28;20038;-71
2023/07/11 07:51:03;;;;;;;29.88;27.80;;;25.50;99.90;;;;;;5015393;28;20074;-73
2023/07/11 07:53:31;;;;;;;29.10;27.10;;;25.60;99.90;;;;;;4997614;28;20046;-72
2023/07/11 07:56:10;;;;;;;29.85;27.80;;;25.70;99.90;;;;;;4991253;28;20053;-71
2023/07/11 07:58:38;;;;;;;30.15;28.17;;;25.80;99.90;;;;;;4989662;28;20042;-71
2023/07/11 08:01:11;;;;;;;30.70;28.70;;;25.90;99.90;;;;;;4990472;28;20054;-72
2023/07/11 08:03:38;;;;;;;31.20;28.80;;;25.90;99.90;;;;;;4991657;28;20038;-72
2023/07/11 08:06:06;;;;;;;31.17;28.92;;;25.70;99.90;;;;;;4987277;28;20047;-73
2023/07/11 08:08:35;;;;;;;29.65;27.55;;;25.90;99.90;;;;;;4992032;28;20456;-72
2023/07/11 08:11:05;;;;;;;30.73;28.73;;;25.90;99.90;;;;;;4988678;28;20504;-73
2023/07/11 08:13:34;;;;;;;30.95;28.75;;;25.80;99.90;;;;;;4990394;28;20054;-74
2023/07/11 08:16:19;;;;;;;32.15;29.67;;;26.00;99.90;;;;;;4993249;28;20115;-73
2023/07/11 08:18:49;;;;;;;30.55;28.45;;;26.20;99.90;;;;;;4988296;28;20042;-73
2023/07/11 08:21:16;;;;;;;31.65;29.35;;;26.10;99.90;;;;;;4991349;28;20046;-73
2023/07/11 08:23:42;;;;;;;31.08;28.88;;;25.90;99.90;;;;;;4992226;28;20351;-73
2023/07/11 08:26:10;;;;;;;32.25;29.88;;;25.90;99.90;;;;;;4996115;28;20471;-72
2023/07/11 08:28:37;;;;;;;30.48;28.27;;;26.00;99.90;;;;;;4988448;28;20034;-72
2023/07/11 08:31:04;;;;;;;30.92;28.83;;;26.20;99.90;;;;;;4991733;28;20038;-73
2023/07/11 08:33:32;;;;;;;30.67;28.65;;;26.40;99.90;;;;;;4997525;28;20046;-73
2023/07/11 08:35:59;;;;;;;31.73;29.55;;;26.60;99.90;;;;;;4989194;28;20067;-72
2023/07/11 08:38:25;;;;;;;32.50;30.17;;;26.80;99.90;;;;;;4975704;28;20046;-71
2023/07/11 08:40:52;;;;;;;31.25;29.05;;;27.00;99.90;;;;;;4977465;28;20053;-73
2023/07/11 08:43:28;;;;;;;32.85;30.48;;;27.20;99.90;;;;;;4972728;28;20038;-73
2023/07/11 08:46:17;;;;;;;32.35;29.92;;;27.50;99.90;;;;;;4975065;28;20062;-73
2023/07/11 08:48:48;;;;;;;32.33;30.02;;;27.50;99.90;;;;;;4968860;28;20452;-72
2023/07/11 08:51:34;;;;;;;32.17;29.77;;;27.40;99.90;;;;;;4976175;28;20089;-72
2023/07/11 08:54:20;;;;;;;31.88;29.77;;;27.60;99.90;;;;;;4974093;28;20047;-72
2023/07/11 08:56:51;;;;;;;31.45;29.35;;;27.50;99.90;;;;;;4971428;28;20555;-72
2023/07/11 08:59:39;;;;;;;33.10;30.75;;;27.40;99.90;;;;;;4972992;28;20047;-73
2023/07/11 09:02:09;;;;;;;32.72;30.50;;;27.40;99.90;;;;;;4971381;28;20050;-70
2023/07/11 09:04:46;;;;;;;32.30;30.40;;;27.30;99.90;;;;;;4968632;28;20082;-70
2023/07/11 09:07:28;;;;;;;33.75;31.70;;;27.40;99.90;;;;;;4974047;28;20050;-72
2023/07/11 09:09:57;;;;;;;34.00;31.98;;;27.70;99.90;;;;;;4975144;28;20050;-71
2023/07/11 09:12:33;;;;;;;33.58;31.55;;;27.70;99.90;;;;;;4969025;28;20049;-69
2023/07/11 09:15:15;;;;;;;31.55;29.45;;;27.80;99.90;;;;;;4969318;28;20401;-71
2023/07/11 09:18:27;;;;;;;34.75;32.42;;;28.00;99.90;;;;;;4969435;28;20042;-70
2023/07/11 09:21:34;;;;;;;33.53;31.33;;;27.90;99.90;;;;;;4976963;28;20070;-71
2023/07/11 09:24:18;;;;;;;32.80;30.83;;;27.70;99.90;;;;;;4976388;28;20085;-72
2023/07/11 09:26:50;;;;;;;34.53;32.47;;;27.70;99.90;;;;;;4974430;28;20035;-70
2023/07/11 09:29:17;;;;;;;35.40;33.38;;;27.60;99.90;;;;;;4973466;28;20489;-69
2023/07/11 09:31:55;;;;;;;36.78;34.38;;;27.90;99.90;;;;;;4973814;28;20039;-70
2023/07/11 09:34:32;;;;;;;35.35;33.15;;;28.30;99.90;;;;;;4976526;28;20065;-72
2023/07/11 09:37:02;;;;;;;36.15;33.85;;;28.00;99.90;;;;;;4972357;28;20569;-70
2023/07/11 09:39:40;;;;;;;34.13;31.73;;;27.70;99.90;;;;;;4972066;28;20058;-68
2023/07/11 09:42:36;;;;;;;34.97;32.67;;;27.90;99.90;;;;;;4978288;28;20178;-69
2023/07/11 09:45:15;;;;;;;31.88;29.70;;;28.10;99.90;;;;;;4980849;28;20093;-71
2023/07/11 09:47:47;;;;;;;33.75;31.17;;;28.10;99.90;;;;;;4978284;28;20042;-71
2023/07/11 09:50:29;;;;;;;30.23;28.15;;;27.90;99.90;;;;;;4973250;28;20404;-73
2023/07/11 09:53:14;;;;;;;32.40;30.20;;;27.70;99.90;;;;;;4973467;28;20129;-75
2023/07/11 09:55:41;;;;;;;36.25;33.85;;;27.30;99.90;;;;;;4976021;28;20492;-73
2023/07/11 09:58:16;;;;;;;35.38;33.08;;;27.30;99.90;;;;;;4972686;28;20460;-74
2023/07/11 10:00:46;;;;;;;;;;;27.60;99.90;;;;;;4974039;28;20069;-73
2023/07/11 10:03:22;;;;;;;36.45;34.15;;;28.00;99.90;;;;;;4973250;28;20388;-72
2023/07/11 10:05:52;;;;;;;35.88;33.58;;;28.50;99.90;;;;;;4967380;28;20046;-73
2023/07/11 10:08:26;;;;;;;35.53;33.13;;;28.80;99.90;;;;;;4974613;28;20106;-74
2023/07/11 10:11:05;;;;;;;35.00;32.33;;;29.20;99.90;;;;;;4975757;28;20121;-74
2023/07/11 10:13:32;;;;;;;33.97;31.77;;;29.20;99.90;;;;;;4975368;28;20390;-73
2023/07/11 10:16:15;;;;;;;35.35;33.10;;;29.00;99.90;;;;;;4972594;28;20053;-75
2023/07/11 10:18:43;;;;;;;35.97;33.58;;;29.40;99.90;;;;;;4972773;28;20586;-73
2023/07/11 10:21:18;;;;;;;36.45;33.85;;;29.40;99.90;;;;;;4971901;28;20061;-74
2023/07/11 10:23:54;;;;;;;36.83;34.42;;;29.40;99.90;;;;;;4971875;28;20050;-76
2023/07/11 10:26:25;;;;;;;36.85;34.53;;;29.40;99.90;;;;;;4969379;28;20117;-74
2023/07/11 10:28:55;;;;;;;37.85;35.25;;;29.50;99.90;;;;;;4966658;28;20126;-73
2023/07/11 10:31:35;;;;;;;38.03;35.33;;;29.60;99.90;;;;;;4973165;28;20043;-74
2023/07/11 10:34:14;;;;;;;38.10;35.60;;;29.80;99.90;;;;;;4951686;28;20188;-73
2023/07/11 10:36:46;;;;;;;39.20;36.70;;;29.80;99.90;;;;;;4966390;28;20081;-73
2023/07/11 10:39:19;;;;;;;39.85;37.38;;;29.80;99.90;;;;;;4954463;28;20093;-73
2023/07/11 10:42:03;;;;;;;39.35;36.85;;;29.60;99.90;;;;;;4970625;28;20042;-73
2023/07/11 10:44:44;;;;;;;40.17;37.58;;;29.60;99.90;;;;;;4966380;28;20117;-75
2023/07/11 10:47:11;;;;;;;38.47;35.97;;;29.30;99.90;;;;;;4968664;28;20505;-76
2023/07/11 10:49:45;;;;;;;40.47;37.88;;;29.10;99.90;;;;;;4964527;28;20104;-74
2023/07/11 10:52:22;;;;;;;37.13;34.72;;;28.80;99.90;;;;;;4972250;28;20038;-73
2023/07/11 10:55:11;;;;;;;35.60;33.30;;;28.90;99.90;;;;;;4965280;28;20617;-76
2023/07/11 10:57:44;;;;;;;38.42;36.13;;;29.20;99.90;;;;;;4964337;28;20097;-73
2023/07/11 11:00:39;;;;;;;38.05;35.45;;;29.20;99.90;;;;;;4964718;28;20505;-73
2023/07/11 11:03:34;;;;;;;38.70;36.38;;;29.00;99.90;;;;;;4947795;28;20050;-73
2023/07/11 11:06:23;;;;;;;40.53;38.03;;;29.10;99.90;;;;;;4955392;28;20072;-74
2023/07/11 11:09:18;;;;;;;41.40;38.80;;;29.10;99.90;;;;;;4970083;28;20705;-74
2023/07/11 11:11:58;;;;;;;40.33;37.63;;;29.30;99.90;;;;;;4965962;28;20735;-74
2023/07/11 11:14:57;;;;;;;41.00;38.30;;;29.10;99.90;;;;;;4970200;28;20038;-74
2023/07/11 11:17:56;;;;;;;40.65;37.95;;;29.40;99.90;;;;;;4963893;28;20548;-73
2023/07/11 11:21:00;;;;;;;39.97;37.40;;;29.70;99.90;;;;;;4969400;28;20053;-74
2023/07/11 11:23:58;;;;;;;39.15;36.65;;;29.80;99.90;;;;;;4970024;28;20058;-75
2023/07/11 11:26:32;;;;;;;39.85;37.35;;;30.00;99.90;;;;;;4966350;28;20142;-75
2023/07/11 11:29:26;;;;;;;41.97;39.20;;;30.40;99.90;;;;;;4972364;28;20116;-74
2023/07/11 11:32:07;;;;;;;41.15;38.17;;;30.50;99.90;;;;;;4966160;28;20047;-75
2023/07/11 11:34:46;;;;;;;41.90;39.20;;;30.70;99.90;;;;;;4965822;28;20046;-73
2023/07/11 11:37:39;;;;;;;43.70;40.70;;;30.60;99.90;;;;;;4969069;28;20053;-74
2023/07/11 11:40:11;;;;;;;44.42;41.63;;;30.40;99.90;;;;;;4968344;28;20138;-76
2023/07/11 11:42:42;;;;;;;43.35;40.45;;;30.30;99.90;;;;;;4967178;28;20571;-75
2023/07/11 11:45:18;;;;;;;42.88;39.97;;;30.10;99.90;;;;;;4963550;28;20043;-74
2023/07/11 11:47:53;;;;;;;43.92;40.92;;;30.10;99.90;;;;;;4967656;28;20042;-76
2023/07/11 11:50:26;;;;;;;44.00;41.30;;;30.30;99.90;;;;;;4970675;28;20068;-75
2023/07/11 11:53:34;;;;;;;43.20;40.38;;;30.40;99.90;;;;;;4961115;28;20421;-73
2023/07/11 11:56:05;;;;;;;46.13;43.22;;;30.60;99.90;;;;;;4991529;28;20078;-72
2023/07/11 11:59:06;;;;;;;44.83;41.92;;;30.60;99.90;;;;;;4990223;28;20054;-73
2023/07/11 12:01:41;;;;;;;44.67;41.70;;;30.50;99.90;;;;;;4960882;28;20035;-74
2023/07/11 12:04:29;;;;;;;42.88;40.13;;;30.70;99.90;;;;;;4972744;28;20043;-75
2023/07/11 12:07:12;;;;;;;45.45;42.45;;;30.70;99.90;;;;;;4967532;28;20116;-74
2023/07/11 12:10:08;;;;;;;43.83;40.92;;;30.90;99.90;;;;;;4969682;28;20484;-73
2023/07/11 12:12:35;;;;;;;42.95;40.05;;;31.20;99.90;;;;;;4967304;28;20041;-75
2023/07/11 12:15:21;;;;;;;45.08;42.10;;;31.10;99.90;;;;;;4967858;28;20046;-74
2023/07/11 12:17:50;;;;;;;44.55;41.65;;;31.00;99.90;;;;;;4965123;28;20042;-74
2023/07/11 12:20:35;;;;;;;44.33;41.42;;;30.90;99.90;;;;;;4967876;28;20035;-74
2023/07/11 12:23:02;;;;;;;43.83;40.92;;;30.90;99.90;;;;;;4965437;28;20057;-75
2023/07/11 12:26:10;;;;;;;43.45;40.47;;;31.00;99.90;;;;;;4973637;28;20046;-74
2023/07/11 12:28:38;;;;;;;43.08;40.25;;;31.20;99.90;;;;;;4976559;28;20146;-74
2023/07/11 12:31:16;;;;;;;45.50;42.67;;;31.30;99.90;;;;;;4986210;28;20043;-74
2023/07/11 12:33:43;;;;;;;47.40;43.97;;;31.30;99.90;;;;;;4971861;28;20073;-72
2023/07/11 12:36:49;;;;;;;45.40;42.42;;;31.10;99.90;;;;;;4965163;28;20126;-74
2023/07/11 12:39:42;;;;;;;47.92;44.55;;;30.90;99.90;;;;;;4952307;28;20043;-75
2023/07/11 12:42:15;;;;;;;46.60;43.60;;;30.60;99.90;;;;;;4970430;28;20076;-74
2023/07/11 12:44:43;;;;;;;46.08;43.15;;;30.90;99.90;;;;;;4972182;28;20055;-74
2023/07/11 12:47:16;;;;;;;46.00;42.97;;;30.90;99.90;;;;;;4970983;28;20035;-74
2023/07/11 12:49:45;;;;;;;45.85;42.97;;;31.00;99.90;;;;;;4973414;28;20471;-73
2023/07/11 12:52:17;;;;;;;46.60;43.40;;;31.10;99.90;;;;;;4975626;28;20058;-76